Amarillo, Texas
Current Conditions -  °F | °C
As of 1:53 AM on Saturday 29 Nov 2014 (Local Time) from KAMA Reporting Station
Clear Clear  
Wind Chill: 44°   Ceiling: Unl
Heat Index: 49°   Visibility: 10mi
Dew Point: 23°   Wind: 13mph
Humidity: 36%   Direction: 240°WSW
Pressure: 29.84"   Gusts: NA
Location:  35.21°N, 101.83°W
Report Text: KAMA 290753Z AUTO 24011KT 10SM CLR 09/M05 A2984 RMK AO2 SLP063 T00941050
Loading
Personal Weather Stations






























Interactive Weather Map New forecast layout! Learn more

10-Day Weather Forecast

Advertisements
Track Severe Weather on mobile